Time;durP1;ratioP1;P1;durP2;ratioP2;P2;SDS_P1;SDS_P2;PMS_P1;PMS_P2;Temp;Humidity;BMP_temperature;BMP_pressure;BME280_temperature;BME280_humidity;BME280_pressure;Samples;Min_cycle;Max_cycle;Signal;HPM_P1;HPM_P2
2022/11/03 00:01:49;;;;;;;27.20;16.90;;;;;;;13.31;59.72;99736.99;223953;1248;140780;-64
2022/11/03 00:06:54;;;;;;;29.00;17.00;;;;;;;13.19;59.63;99736.83;223154;1248;139993;-63
2022/11/03 00:11:57;;;;;;;31.80;17.30;;;;;;;13.12;60.20;99735.48;224018;1247;139581;-64
2022/11/03 00:17:01;;;;;;;35.80;19.40;;;;;;;13.06;60.08;99744.55;223950;1244;140892;-64
2022/11/03 00:22:04;;;;;;;34.10;19.00;;;;;;;13.06;60.12;99747.58;223177;1241;140620;-61
2022/11/03 00:27:07;;;;;;;30.60;18.60;;;;;;;13.07;60.14;99750.55;224036;1258;140149;-62
2022/11/03 00:32:09;;;;;;;30.50;18.50;;;;;;;13.08;60.56;99752.48;223176;1257;140209;-65
2022/11/03 00:37:13;;;;;;;30.70;18.40;;;;;;;13.11;60.54;99758.18;223960;1250;140566;-64
2022/11/03 00:42:16;;;;;;;32.10;18.60;;;;;;;13.12;60.67;99755.05;224045;1250;140426;-65
2022/11/03 00:47:18;;;;;;;30.70;17.20;;;;;;;13.12;60.63;99749.55;223899;1247;139890;-63
2022/11/03 00:52:26;;;;;;;29.70;18.00;;;;;;;13.10;60.73;99742.23;223892;1240;139678;-62
2022/11/03 00:57:29;;;;;;;31.30;17.40;;;;;;;13.08;60.61;99741.81;223985;1247;141386;-62
2022/11/03 01:02:32;;;;;;;31.50;17.20;;;;;;;13.02;60.80;99742.29;223150;1258;140127;-62
2022/11/03 01:07:35;;;;;;;28.10;16.40;;;;;;;12.97;60.79;99749.70;223129;1256;140085;-66
2022/11/03 01:12:38;;;;;;;27.60;15.50;;;;;;;12.91;60.74;99752.96;223342;1257;140188;-61
2022/11/03 01:17:41;;;;;;;29.60;15.40;;;;;;;12.85;60.74;99750.80;223469;1247;139857;-68
2022/11/03 01:22:44;;;;;;;28.10;15.20;;;;;;;12.82;60.85;99756.54;223220;1247;140087;-65
2022/11/03 01:27:46;;;;;;;22.50;14.20;;;;;;;12.83;61.07;99760.93;223286;1260;140724;-68
2022/11/03 01:32:49;;;;;;;27.80;14.00;;;;;;;12.87;61.08;99767.59;223965;1247;139904;-62
2022/11/03 01:37:55;;;;;;;24.60;14.80;;;;;;;12.84;60.88;99769.24;223938;1247;141490;-66
2022/11/03 01:43:17;;;;;;;28.50;14.20;;;;;;;12.77;60.87;99768.22;223237;1256;141510;-64
2022/11/03 01:48:21;;;;;;;27.60;14.70;;;;;;;12.67;60.98;99773.63;223403;1254;139472;-69
2022/11/03 01:53:26;;;;;;;24.20;15.20;;;;;;;12.62;61.01;99770.91;223474;1257;139670;-68
2022/11/03 01:58:36;;;;;;;29.40;15.60;;;;;;;12.56;61.10;99765.17;223281;1257;139996;-67
2022/11/03 02:03:45;;;;;;;23.00;14.80;;;;;;;12.50;61.13;99752.52;224079;1248;139765;-65
2022/11/03 02:08:59;;;;;;;28.90;15.30;;;;;;;12.44;61.08;99749.17;223029;1251;140014;-67
2022/11/03 02:14:02;;;;;;;26.20;15.60;;;;;;;12.36;60.91;99749.45;223650;1242;139882;-66
2022/11/03 02:19:13;;;;;;;28.60;16.20;;;;;;;12.29;61.34;99748.95;223062;1257;139962;-68
2022/11/03 02:24:36;;;;;;;29.20;15.80;;;;;;;12.23;61.17;99755.89;222955;1256;140827;-65
2022/11/03 02:29:39;;;;;;;30.00;16.20;;;;;;;12.22;61.34;99757.56;223882;1249;140411;-67
2022/11/03 02:34:49;;;;;;;28.10;16.30;;;;;;;12.25;61.72;99758.27;223100;1254;140036;-65
2022/11/03 02:40:14;;;;;;;29.10;16.80;;;;;;;12.25;61.47;99762.66;223064;1250;139376;-63
2022/11/03 02:45:20;;;;;;;31.40;18.50;;;;;;;12.22;61.80;99763.38;223723;1249;139779;-64
2022/11/03 02:50:28;;;;;;;33.30;17.10;;;;;;;12.20;61.89;99763.34;223079;1256;140003;-67
2022/11/03 02:55:35;;;;;;;30.30;17.30;;;;;;;12.19;61.69;99768.36;223653;1243;139886;-63
2022/11/03 03:00:48;;;;;;;30.50;16.90;;;;;;;12.19;61.79;99768.74;223080;1250;140791;-63
2022/11/03 03:05:56;;;;;;;34.40;18.10;;;;;;;12.14;61.85;99770.80;223194;1254;140724;-66
2022/11/03 03:11:02;;;;;;;31.60;18.00;;;;;;;12.04;61.78;99772.61;223050;1250;139742;-60
2022/11/03 03:16:15;;;;;;;33.70;18.20;;;;;;;11.93;61.58;99772.52;223160;1257;143166;-60
2022/11/03 03:21:24;;;;;;;38.70;17.90;;;;;;;11.76;61.40;99771.67;223160;1254;139688;-62
2022/11/03 03:26:29;;;;;;;34.50;15.80;;;;;;;11.61;61.46;99772.83;223167;1248;141645;-62
2022/11/03 03:31:37;;;;;;;32.70;17.80;;;;;;;11.53;61.46;99770.05;223114;1247;140302;-60
2022/11/03 03:36:43;;;;;;;30.70;17.70;;;;;;;11.48;61.76;99770.88;223026;1256;140017;-62
2022/11/03 03:41:47;;;;;;;32.50;17.70;;;;;;;11.49;62.06;99774.18;223134;1256;139871;-61
2022/11/03 03:46:58;;;;;;;32.00;17.50;;;;;;;11.47;62.05;99778.91;223102;1256;139748;-59
2022/11/03 03:52:02;;;;;;;30.70;17.60;;;;;;;11.46;62.28;99781.99;223648;1249;139476;-61
2022/11/03 03:57:09;;;;;;;84.20;53.20;;;;;;;11.48;62.71;99773.02;223135;1257;139739;-63
2022/11/03 04:02:12;;;;;;;33.50;19.10;;;;;;;11.50;62.53;99773.22;223105;1250;139630;-61
2022/11/03 04:23:28;;;;;;;28.90;17.50;;;;;;;11.35;62.33;99764.48;223303;1256;140706;-64
2022/11/03 04:28:31;;;;;;;30.40;18.20;;;;;;;11.31;62.40;99766.46;223255;1251;140050;-66
2022/11/03 04:33:34;;;;;;;30.30;18.90;;;;;;;11.23;62.05;99767.41;223339;1257;139792;-65
2022/11/03 04:38:38;;;;;;;33.40;19.20;;;;;;;11.13;62.31;99766.19;223909;1247;140103;-64
2022/11/03 04:43:41;;;;;;;42.80;28.50;;;;;;;11.08;62.46;99761.48;223246;1256;139546;-64
2022/11/03 04:48:46;;;;;;;35.10;19.40;;;;;;;11.08;62.71;99760.73;223241;1257;139538;-64
2022/11/03 04:53:53;;;;;;;30.00;18.70;;;;;;;11.02;62.24;99759.13;223417;1257;139988;-63
2022/11/03 04:58:57;;;;;;;33.80;18.80;;;;;;;10.90;62.16;99758.67;223232;1248;140852;-62
2022/11/03 05:04:00;;;;;;;31.90;19.00;;;;;;;10.77;62.04;99761.66;223249;1260;140118;-64
2022/11/03 05:09:28;;;;;;;33.20;18.60;;;;;;;10.66;62.20;99760.59;223114;1257;139636;-68
2022/11/03 05:14:31;;;;;;;37.70;19.30;;;;;;;10.53;62.06;99766.58;223225;1254;139597;-64
2022/11/03 05:19:40;;;;;;;41.00;20.40;;;;;;;10.45;62.31;99768.08;223189;1257;141051;-65
2022/11/03 05:24:43;;;;;;;33.60;19.10;;;;;;;10.39;62.37;99768.16;223211;1254;140324;-63
2022/11/03 05:29:48;;;;;;;34.40;21.20;;;;;;;10.39;62.83;99771.17;223265;1248;141612;-65
2022/11/03 05:34:55;;;;;;;37.40;20.60;;;;;;;10.46;63.12;99771.77;223353;1257;139529;-64
2022/11/03 05:40:20;;;;;;;33.50;19.50;;;;;;;10.51;63.34;99764.76;223255;1249;140115;-66
2022/11/03 05:45:29;;;;;;;33.30;20.30;;;;;;;10.52;63.02;99763.96;223165;1247;139810;-66
2022/11/03 05:50:34;;;;;;;34.50;19.10;;;;;;;10.46;62.68;99760.16;223177;1254;140192;-63
2022/11/03 05:55:37;;;;;;;32.90;20.30;;;;;;;10.37;62.82;99757.61;223163;1256;139479;-65
2022/11/03 06:00:41;;;;;;;34.60;19.60;;;;;;;10.30;62.78;99759.55;223945;1240;139549;-67
2022/11/03 06:05:52;;;;;;;35.00;20.10;;;;;;;10.24;62.83;99763.02;223385;1251;139843;-64
2022/11/03 06:10:57;;;;;;;39.30;21.40;;;;;;;10.18;62.95;99763.48;223101;1257;140991;-66
2022/11/03 06:16:25;;;;;;;40.70;20.90;;;;;;;10.20;63.04;99759.52;223077;1253;140622;-68
2022/11/03 06:21:29;;;;;;;40.00;21.70;;;;;;;10.26;63.08;99761.88;223094;1250;139632;-65
2022/11/03 06:26:32;;;;;;;41.80;22.60;;;;;;;10.32;63.23;99764.29;223133;1254;139635;-62
2022/11/03 06:31:37;;;;;;;41.50;20.90;;;;;;;10.34;63.18;99770.56;223162;1250;140042;-61
2022/11/03 06:36:40;;;;;;;42.80;21.50;;;;;;;10.32;63.07;99774.02;223133;1255;139854;-64
2022/11/03 06:41:43;;;;;;;49.10;20.80;;;;;;;10.35;63.62;99777.95;223276;1257;139672;-63
2022/11/03 06:46:46;;;;;;;42.60;21.30;;;;;;;10.38;63.53;99780.11;223088;1240;139281;-63
2022/11/03 06:51:49;;;;;;;40.70;21.40;;;;;;;10.39;63.49;99782.86;223940;1246;139863;-62
2022/11/03 06:56:52;;;;;;;40.40;19.50;;;;;;;10.39;63.38;99792.11;222364;1256;139147;-68
2022/11/03 07:01:55;;;;;;;35.60;18.80;;;;;;;10.39;63.33;99789.43;222241;1248;140003;-61
2022/11/03 07:07:01;;;;;;;36.30;20.30;;;;;;;10.44;63.72;99788.66;223090;1238;140603;-63
2022/11/03 07:12:15;;;;;;;33.70;18.50;;;;;;;10.56;63.73;99791.80;223089;1257;140991;-61
2022/11/03 07:17:21;;;;;;;33.90;19.60;;;;;;;10.71;63.97;99787.30;223742;1240;141176;-61
2022/11/03 07:22:25;;;;;;;31.80;19.10;;;;;;;10.84;64.09;99773.69;223189;1256;139981;-61
2022/11/03 07:27:34;;;;;;;34.70;19.20;;;;;;;11.01;64.36;99766.95;223039;1256;141266;-61
2022/11/03 07:32:38;;;;;;;33.50;18.50;;;;;;;11.14;64.20;99762.55;223076;1256;139852;-65
2022/11/03 07:37:41;;;;;;;31.60;17.70;;;;;;;11.22;64.10;99756.64;223214;1257;139930;-63
2022/11/03 07:42:44;;;;;;;31.50;17.70;;;;;;;11.32;64.12;99750.59;223748;1246;140065;-65
2022/11/03 07:47:47;;;;;;;33.80;19.10;;;;;;;11.43;64.25;99743.60;223238;1250;139549;-66
2022/11/03 07:52:50;;;;;;;32.20;18.60;;;;;;;11.57;64.40;99737.70;223973;1246;140113;-65
2022/11/03 07:57:53;;;;;;;35.10;17.00;;;;;;;11.74;64.24;99730.52;223136;1256;139710;-64
2022/11/03 08:02:59;;;;;;;28.80;14.10;;;;;;;12.00;64.41;99724.09;223871;1241;143178;-65
2022/11/03 08:08:03;;;;;;;26.40;13.00;;;;;;;12.32;64.41;99716.41;223820;1248;140557;-64
2022/11/03 08:13:06;;;;;;;27.10;13.00;;;;;;;12.59;64.31;99704.45;223094;1255;140247;-64
2022/11/03 08:18:09;;;;;;;24.10;12.10;;;;;;;12.85;63.86;99694.35;223711;1243;140014;-65
2022/11/03 08:23:13;;;;;;;17.80;10.00;;;;;;;13.07;63.45;99683.95;223068;1250;139806;-68
2022/11/03 08:28:32;;;;;;;23.30;9.40;;;;;;;13.26;63.15;99679.40;222400;1256;140056;-66
2022/11/03 08:33:35;;;;;;;16.90;8.60;;;;;;;13.41;62.88;99680.40;222432;1257;140564;-65
2022/11/03 08:38:38;;;;;;;22.70;10.30;;;;;;;13.50;61.93;99680.17;222469;1256;141300;-68
2022/11/03 08:43:41;;;;;;;23.10;10.40;;;;;;;13.61;61.75;99676.66;222399;1253;140478;-67
2022/11/03 08:48:45;;;;;;;18.80;10.20;;;;;;;13.70;61.74;99669.44;222398;1257;140055;-64
2022/11/03 08:53:52;;;;;;;23.40;11.10;;;;;;;13.81;61.17;99660.36;223246;1249;141087;-68
2022/11/03 08:58:55;;;;;;;22.70;9.50;;;;;;;13.96;61.03;99657.23;223191;1244;140891;-66
2022/11/03 09:03:58;;;;;;;16.90;8.40;;;;;;;14.08;60.57;99648.93;222361;1251;140291;-64
2022/11/03 09:09:02;;;;;;;22.10;12.00;;;;;;;14.18;60.11;99644.70;223102;1249;141365;-63
2022/11/03 09:14:25;;;;;;;23.90;10.40;;;;;;;14.34;60.09;99641.33;222451;1255;140774;-63
2022/11/03 09:19:28;;;;;;;17.60;7.50;;;;;;;14.46;59.99;99642.45;222495;1256;140555;-65
2022/11/03 09:24:31;;;;;;;12.90;6.90;;;;;;;14.54;59.70;99642.61;222351;1257;140948;-65
2022/11/03 09:29:34;;;;;;;12.60;4.90;;;;;;;14.62;59.18;99632.83;222520;1247;140050;-66
2022/11/03 09:34:57;;;;;;;13.20;5.90;;;;;;;14.74;59.03;99626.45;222396;1248;140519;-68
2022/11/03 09:39:59;;;;;;;17.80;6.90;;;;;;;14.89;58.80;99622.89;222346;1259;139718;-68
2022/11/03 09:45:04;;;;;;;13.80;6.10;;;;;;;14.99;58.43;99614.52;223052;1247;141332;-65
2022/11/03 09:50:16;;;;;;;11.90;4.70;;;;;;;15.06;58.10;99609.15;223078;1249;139899;-63
2022/11/03 09:55:26;;;;;;;15.90;4.60;;;;;;;15.16;57.85;99600.45;222455;1247;140154;-63
2022/11/03 10:00:29;;;;;;;12.90;4.50;;;;;;;15.22;57.73;99594.98;222970;1257;141442;-63
2022/11/03 10:05:32;;;;;;;16.10;5.70;;;;;;;15.29;57.25;99589.45;223237;1257;140183;-66
2022/11/03 10:10:36;;;;;;;16.00;6.00;;;;;;;15.42;57.31;99582.59;222992;1257;140052;-62
2022/11/03 10:15:41;;;;;;;19.70;6.30;;;;;;;15.63;57.14;99573.55;223805;1246;141015;-63
2022/11/03 10:20:44;;;;;;;18.90;6.20;;;;;;;15.82;56.69;99564.98;222746;1249;140075;-63
2022/11/03 10:25:47;;;;;;;18.80;5.50;;;;;;;16.00;56.37;99554.14;222840;1245;140331;-67
2022/11/03 10:30:55;;;;;;;12.50;5.40;;;;;;;16.20;56.01;99550.50;223096;1257;140638;-60
2022/11/03 10:36:15;;;;;;;11.20;5.40;;;;;;;16.37;55.98;99538.43;223259;1250;139653;-65
2022/11/03 10:41:25;;;;;;;212.80;158.40;;;;;;;16.74;57.54;99532.77;223170;1248;139839;-63
2022/11/03 10:46:29;;;;;;;22.80;12.70;;;;;;;17.33;57.19;99522.70;223829;1250;140219;-63
2022/11/03 10:51:53;;;;;;;15.10;8.00;;;;;;;17.45;55.55;99519.70;223020;1257;139936;-64
2022/11/03 10:56:57;;;;;;;15.50;5.70;;;;;;;17.50;55.32;99517.36;223112;1250;139483;-64
2022/11/03 11:02:00;;;;;;;11.60;5.30;;;;;;;17.60;54.96;99510.22;223166;1257;140918;-61
2022/11/03 11:07:17;;;;;;;13.40;5.50;;;;;;;17.74;54.96;99496.35;223099;1250;139879;-62
2022/11/03 11:12:24;;;;;;;8.70;3.90;;;;;;;17.71;53.83;99487.39;223199;1253;140320;-61
2022/11/03 11:17:36;;;;;;;11.40;5.00;;;;;;;17.79;54.55;99475.11;223873;1250;139435;-63
2022/11/03 11:22:39;;;;;;;8.50;2.80;;;;;;;17.96;54.28;99465.89;223864;1250;139506;-64
2022/11/03 11:27:42;;;;;;;11.80;3.40;;;;;;;17.98;52.88;99456.40;223119;1256;139358;-64
2022/11/03 11:32:45;;;;;;;10.20;3.00;;;;;;;17.88;52.18;99445.93;222840;1257;139514;-64
2022/11/03 11:37:48;;;;;;;13.20;5.20;;;;;;;17.84;51.95;99440.79;222868;1251;139742;-65
2022/11/03 11:43:00;;;;;;;32.30;20.30;;;;;;;17.91;51.81;99435.67;223028;1257;139629;-61
2022/11/03 11:48:16;;;;;;;12.60;6.40;;;;;;;18.08;52.51;99425.91;223122;1255;139284;-61
2022/11/03 11:53:21;;;;;;;12.00;4.10;;;;;;;18.46;51.78;99415.37;223763;1250;139721;-62
2022/11/03 11:58:42;;;;;;;11.50;6.30;;;;;;;18.49;50.89;99407.80;223134;1253;139551;-64
2022/11/03 12:03:46;;;;;;;10.70;3.60;;;;;;;18.57;50.81;99392.87;223191;1250;140419;-63
2022/11/03 12:08:49;;;;;;;11.00;3.30;;;;;;;18.47;49.64;99380.42;223028;1256;140217;-63
2022/11/03 12:13:52;;;;;;;9.40;3.00;;;;;;;18.37;49.57;99368.73;223769;1246;140018;-65
2022/11/03 12:18:56;;;;;;;12.30;3.70;;;;;;;18.33;49.40;99359.38;223122;1258;139593;-61
2022/11/03 12:24:00;;;;;;;11.20;3.80;;;;;;;18.34;49.25;99349.09;223201;1253;140131;-62
2022/11/03 12:29:09;;;;;;;9.50;3.40;;;;;;;18.29;48.93;99343.45;223162;1251;139354;-62
2022/11/03 12:34:13;;;;;;;18.90;3.80;;;;;;;18.26;48.80;99338.28;223141;1256;139860;-61
2022/11/03 12:39:16;;;;;;;13.10;4.00;;;;;;;18.16;48.35;99332.52;223791;1247;139655;-67
2022/11/03 12:44:19;;;;;;;9.60;4.20;;;;;;;18.16;48.49;99322.34;223063;1257;140263;-64
2022/11/03 12:49:22;;;;;;;19.20;4.70;;;;;;;18.12;48.34;99302.55;223098;1257;139172;-62
2022/11/03 12:54:25;;;;;;;9.70;3.90;;;;;;;18.10;48.19;99294.10;223222;1258;139668;-65
2022/11/03 12:59:28;;;;;;;11.20;3.50;;;;;;;18.02;48.00;99287.27;223137;1255;140824;-62
2022/11/03 13:04:31;;;;;;;14.00;4.20;;;;;;;17.99;48.23;99289.16;223105;1257;140160;-64
2022/11/03 13:09:34;;;;;;;13.30;3.20;;;;;;;17.95;48.29;99286.65;223089;1257;139979;-62
2022/11/03 13:14:37;;;;;;;12.60;3.30;;;;;;;18.02;48.74;99286.01;223214;1261;139828;-67
2022/11/03 13:19:43;;;;;;;9.60;3.30;;;;;;;18.08;48.63;99276.73;223131;1256;139850;-63
2022/11/03 13:24:46;;;;;;;9.50;3.60;;;;;;;18.11;48.37;99273.37;223228;1257;139945;-66
2022/11/03 13:29:49;;;;;;;15.70;4.60;;;;;;;17.95;47.40;99269.27;223397;1258;140658;-66
2022/11/03 13:34:52;;;;;;;15.90;4.50;;;;;;;17.73;47.10;99259.89;223105;1257;140094;-61
2022/11/03 13:39:55;;;;;;;15.90;4.20;;;;;;;17.50;47.06;99254.30;223171;1257;140000;-62
2022/11/03 13:44:58;;;;;;;13.70;4.60;;;;;;;17.32;47.18;99254.11;223969;1245;139995;-62
2022/11/03 13:50:02;;;;;;;16.80;4.10;;;;;;;17.18;47.31;99256.40;223838;1250;140167;-62
2022/11/03 13:55:21;;;;;;;13.60;4.20;;;;;;;17.02;47.26;99245.41;223786;1247;141016;-61
2022/11/03 14:00:44;;;;;;;13.40;3.80;;;;;;;16.89;47.44;99239.64;223250;1258;140463;-63
2022/11/03 14:05:47;;;;;;;10.80;3.60;;;;;;;16.77;47.45;99237.80;223966;1247;139891;-66
2022/11/03 14:10:50;;;;;;;11.80;3.30;;;;;;;16.64;47.56;99227.02;223075;1251;140648;-65
2022/11/03 14:15:55;;;;;;;9.90;3.30;;;;;;;16.53;47.63;99222.63;223171;1258;139661;-67
2022/11/03 14:20:58;;;;;;;9.80;3.50;;;;;;;16.43;47.74;99214.31;223869;1250;139556;-65
2022/11/03 14:26:01;;;;;;;10.40;3.30;;;;;;;16.32;47.72;99206.09;223645;1250;139285;-62
2022/11/03 14:31:25;;;;;;;11.80;4.00;;;;;;;16.19;47.73;99203.60;223067;1257;139695;-61
2022/11/03 14:36:28;;;;;;;9.60;3.50;;;;;;;16.05;47.77;99199.52;223264;1257;140090;-63
2022/11/03 14:46:52;;;;;;;7.30;2.70;;;;;;;15.80;47.99;99196.59;223289;1251;139549;-61
2022/11/03 14:51:56;;;;;;;9.10;3.00;;;;;;;15.70;48.07;99193.11;223354;1258;139496;-66
2022/11/03 14:57:00;;;;;;;10.30;3.50;;;;;;;15.62;48.20;99190.89;223197;1256;139794;-63
2022/11/03 15:02:04;;;;;;;13.00;4.00;;;;;;;15.49;48.44;99184.95;223297;1254;139640;-63
2022/11/03 15:07:08;;;;;;;11.90;4.20;;;;;;;15.35;48.63;99179.23;223202;1254;139962;-65
2022/11/03 15:12:11;;;;;;;12.40;4.20;;;;;;;15.22;48.77;99171.84;223252;1250;140041;-62
2022/11/03 15:17:14;;;;;;;17.10;4.30;;;;;;;15.11;48.96;99172.92;223257;1261;140206;-62
2022/11/03 15:22:17;;;;;;;9.60;3.90;;;;;;;14.99;49.29;99175.67;223068;1249;139425;-66
2022/11/03 15:27:21;;;;;;;12.50;4.30;;;;;;;14.86;49.23;99172.91;223084;1253;139543;-64
2022/11/03 15:32:24;;;;;;;14.00;4.50;;;;;;;14.73;49.35;99164.63;223816;1253;139930;-65
2022/11/03 15:37:26;;;;;;;17.90;4.50;;;;;;;14.61;49.62;99160.32;223906;1240;140512;-62
2022/11/03 15:42:29;;;;;;;21.40;5.00;;;;;;;14.51;49.70;99164.00;223146;1251;140493;-62
2022/11/03 15:47:33;;;;;;;19.90;4.70;;;;;;;14.39;49.76;99161.14;223034;1261;142168;-66
2022/11/03 15:52:36;;;;;;;21.30;5.90;;;;;;;14.28;50.04;99160.86;223612;1250;139999;-68
2022/11/03 15:57:39;;;;;;;19.30;5.80;;;;;;;14.19;50.25;99157.96;223645;1247;140800;-66
2022/11/03 16:02:42;;;;;;;78.50;47.20;;;;;;;14.25;51.85;99158.11;223023;1251;139603;-64
2022/11/03 16:07:46;;;;;;;15.10;7.20;;;;;;;14.55;51.67;99161.18;223778;1253;139632;-64
2022/11/03 16:12:49;;;;;;;15.90;7.00;;;;;;;14.43;50.61;99152.95;223765;1244;139465;-66
2022/11/03 16:17:52;;;;;;;15.90;7.00;;;;;;;14.28;50.52;99145.02;223148;1257;139660;-64
2022/11/03 16:22:55;;;;;;;12.60;6.70;;;;;;;14.12;50.52;99139.98;223159;1253;139654;-69
2022/11/03 16:27:58;;;;;;;14.00;7.20;;;;;;;13.98;50.49;99127.65;223045;1251;139581;-65
2022/11/03 16:33:01;;;;;;;20.40;7.70;;;;;;;13.88;50.67;99119.95;223731;1243;140525;-65
2022/11/03 16:38:06;;;;;;;11.50;6.70;;;;;;;13.81;50.90;99103.20;223098;1249;139722;-69
2022/11/03 16:43:10;;;;;;;14.70;6.60;;;;;;;13.79;51.03;99101.77;223813;1247;139838;-70
2022/11/03 16:48:13;;;;;;;11.30;6.00;;;;;;;13.82;51.32;99097.58;223215;1255;140207;-68
2022/11/03 16:53:16;;;;;;;18.10;6.80;;;;;;;13.85;51.35;99098.61;223794;1246;139601;-67
2022/11/03 16:58:19;;;;;;;17.40;7.60;;;;;;;13.89;51.16;99099.59;223034;1249;139903;-67
2022/11/03 17:03:22;;;;;;;16.00;7.80;;;;;;;13.89;51.09;99099.95;223071;1251;139971;-64
2022/11/03 17:08:25;;;;;;;16.30;7.80;;;;;;;13.87;51.14;99092.39;223811;1241;139319;-68
2022/11/03 17:13:49;;;;;;;24.90;8.20;;;;;;;13.82;51.00;99089.22;223042;1246;139362;-66
2022/11/03 17:18:52;;;;;;;21.40;8.50;;;;;;;13.76;50.92;99090.02;223043;1256;139597;-66
2022/11/03 17:23:55;;;;;;;16.20;7.50;;;;;;;13.73;51.05;99082.95;223131;1257;139736;-65
2022/11/03 17:28:58;;;;;;;18.60;8.50;;;;;;;13.69;51.18;99074.50;223074;1256;139891;-66
2022/11/03 17:34:02;;;;;;;16.10;7.70;;;;;;;13.66;51.05;99057.98;223817;1245;139531;-62
2022/11/03 17:39:05;;;;;;;19.20;8.40;;;;;;;13.64;51.28;99045.44;223145;1247;140208;-63
2022/11/03 17:44:10;;;;;;;15.60;8.10;;;;;;;13.61;51.20;99035.86;223135;1250;139693;-64
2022/11/03 17:49:13;;;;;;;19.90;9.00;;;;;;;13.57;51.24;99026.73;224017;1240;139806;-65
2022/11/03 17:54:16;;;;;;;20.60;8.40;;;;;;;13.48;51.27;99028.27;223231;1257;139966;-67
2022/11/03 17:59:20;;;;;;;22.20;9.30;;;;;;;13.39;51.40;99020.73;223171;1247;139668;-68
2022/11/03 18:04:23;;;;;;;28.90;9.40;;;;;;;13.35;51.41;99017.49;223189;1256;138964;-64
2022/11/03 18:09:26;;;;;;;19.20;9.80;;;;;;;13.31;51.66;99014.55;223330;1258;139962;-65
2022/11/03 18:14:29;;;;;;;16.80;9.50;;;;;;;13.23;51.76;99010.67;223424;1256;139692;-65
2022/11/03 18:19:32;;;;;;;17.60;9.10;;;;;;;13.15;51.89;99008.45;224107;1244;140202;-65
2022/11/03 18:24:36;;;;;;;18.20;9.50;;;;;;;13.07;52.23;99008.98;223454;1251;139958;-67
2022/11/03 18:29:39;;;;;;;20.60;10.70;;;;;;;13.01;52.29;99007.66;224155;1247;139677;-65
2022/11/03 18:34:42;;;;;;;18.50;9.60;;;;;;;12.96;52.60;99003.00;223517;1250;139692;-67
2022/11/03 18:39:45;;;;;;;43.10;25.00;;;;;;;12.95;53.06;98997.22;223506;1247;140920;-68
2022/11/03 18:44:48;;;;;;;27.10;11.90;;;;;;;13.01;53.48;98986.61;223377;1253;139835;-68
2022/11/03 18:49:51;;;;;;;20.80;10.40;;;;;;;13.01;53.04;98977.54;223349;1255;139846;-64
2022/11/03 18:54:54;;;;;;;21.70;10.80;;;;;;;12.98;53.20;98966.54;223393;1247;139760;-64
2022/11/03 18:59:57;;;;;;;19.90;11.00;;;;;;;12.96;53.50;98955.66;223601;1247;140240;-62
2022/11/03 19:05:00;;;;;;;21.60;11.00;;;;;;;12.93;53.59;98944.10;223421;1247;139646;-63
2022/11/03 19:10:05;;;;;;;22.40;11.30;;;;;;;12.90;53.61;98936.33;223444;1255;142997;-61
2022/11/03 19:15:18;;;;;;;22.60;11.80;;;;;;;12.86;53.66;98923.49;223352;1253;142162;-65
2022/11/03 19:20:24;;;;;;;24.70;12.80;;;;;;;12.83;53.98;98918.52;223372;1247;139976;-67
2022/11/03 19:25:27;;;;;;;21.40;11.20;;;;;;;12.81;54.38;98909.41;223470;1255;140019;-67
2022/11/03 19:30:30;;;;;;;23.60;13.10;;;;;;;12.80;54.44;98901.98;224143;1246;139547;-66
2022/11/03 19:35:34;;;;;;;24.50;12.30;;;;;;;12.79;54.44;98891.69;223535;1257;140349;-62
2022/11/03 19:40:38;;;;;;;23.60;13.20;;;;;;;12.79;54.62;98889.24;223436;1257;139758;-65
2022/11/03 19:45:41;;;;;;;23.10;12.20;;;;;;;12.77;54.90;98885.77;223430;1257;140150;-66
2022/11/03 19:50:44;;;;;;;26.10;13.30;;;;;;;12.76;54.83;98880.02;223205;1249;140417;-64
2022/11/03 19:55:48;;;;;;;27.60;14.10;;;;;;;12.76;55.20;98873.80;223932;1241;140063;-69
2022/11/03 20:00:52;;;;;;;26.70;14.00;;;;;;;12.76;55.28;98865.60;223030;1250;185106;-65
2022/11/03 20:05:56;;;;;;;24.20;14.20;;;;;;;12.77;55.24;98852.52;223201;1256;140122;-69
2022/11/03 20:11:00;;;;;;;21.30;13.30;;;;;;;12.78;55.23;98849.80;223968;1242;140646;-65
2022/11/03 20:16:08;;;;;;;29.20;14.10;;;;;;;12.75;55.54;98848.59;224007;1247;139122;-65
2022/11/03 20:21:15;;;;;;;26.60;13.80;;;;;;;12.74;55.69;98840.98;224061;1242;139884;-66
2022/11/03 20:26:21;;;;;;;25.90;13.50;;;;;;;12.74;55.63;98833.89;223313;1253;140117;-69
2022/11/03 20:31:24;;;;;;;25.80;13.80;;;;;;;12.71;55.73;98827.31;223506;1251;139714;-70
2022/11/03 20:36:29;;;;;;;19.00;10.50;;;;;;;12.72;55.90;98817.66;224105;1247;140444;-65
2022/11/03 20:41:33;;;;;;;21.30;12.50;;;;;;;12.74;56.01;98815.77;223426;1249;140645;-64
2022/11/03 20:46:36;;;;;;;27.20;14.10;;;;;;;12.72;55.96;98815.90;223456;1248;141134;-63
2022/11/03 20:51:42;;;;;;;47.30;32.70;;;;;;;12.71;56.28;98811.88;224086;1250;139995;-64
2022/11/03 20:56:46;;;;;;;26.70;15.20;;;;;;;12.77;56.66;98800.34;223266;1249;140998;-64
2022/11/03 21:01:50;;;;;;;26.10;13.90;;;;;;;12.80;56.18;98798.17;224080;1242;140797;-63
2022/11/03 21:06:54;;;;;;;21.70;12.80;;;;;;;12.77;56.29;98797.50;223351;1254;231413;-62
2022/11/03 21:12:00;;;;;;;25.30;13.50;;;;;;;12.75;56.49;98796.56;223567;1251;139534;-63
2022/11/03 21:22:35;;;;;;;43.40;26.40;;;;;;;12.80;56.98;98779.34;223284;1233;140655;-61
2022/11/03 21:27:56;;;;;;;149.40;101.00;;;;;;;12.77;56.60;98768.46;223472;1257;139840;-63
2022/11/03 21:32:58;;;;;;;33.70;18.30;;;;;;;12.78;56.94;98765.40;223445;1256;140231;-63
2022/11/03 21:38:02;;;;;;;24.80;13.40;;;;;;;12.74;56.65;98758.04;223311;1251;139694;-63
2022/11/03 21:53:57;;;;;;;24.00;13.00;;;;;;;12.62;57.04;98753.06;223297;1250;140361;-62
2022/11/03 21:59:00;;;;;;;26.80;12.80;;;;;;;12.59;56.96;98747.07;223863;1249;140251;-63
2022/11/03 22:04:03;;;;;;;20.70;12.40;;;;;;;12.58;57.06;98739.20;223300;1251;139756;-64
2022/11/03 22:09:06;;;;;;;21.80;12.40;;;;;;;12.55;57.38;98731.14;223824;1250;140258;-65
2022/11/03 22:14:13;;;;;;;19.50;11.50;;;;;;;12.55;57.32;98726.42;223144;1247;139843;-62
2022/11/03 22:46:19;;;;;;;20.10;11.80;;;;;;;12.42;57.64;98691.05;223094;1248;140096;-63
2022/11/03 22:51:22;;;;;;;19.20;12.40;;;;;;;12.41;57.95;98679.59;223180;1248;140495;-63
2022/11/03 22:56:29;;;;;;;22.60;12.40;;;;;;;12.41;57.85;98674.06;223960;1242;139530;-64
2022/11/03 23:01:32;;;;;;;20.20;12.30;;;;;;;12.40;57.80;98666.16;223187;1247;141937;-62
2022/11/03 23:06:39;;;;;;;23.10;12.80;;;;;;;12.37;57.99;98662.99;223283;1256;140040;-63
2022/11/03 23:11:42;;;;;;;24.50;12.90;;;;;;;12.35;58.06;98658.14;223326;1256;140571;-61
2022/11/03 23:16:45;;;;;;;19.00;11.80;;;;;;;12.38;57.95;98653.63;223914;1251;141090;-63
2022/11/03 23:21:51;;;;;;;23.50;12.10;;;;;;;12.43;58.03;98645.82;223104;1253;140622;-65
2022/11/03 23:26:54;;;;;;;21.10;12.00;;;;;;;12.45;58.11;98638.02;223084;1249;140183;-62
2022/11/03 23:31:58;;;;;;;18.90;11.30;;;;;;;12.46;58.17;98625.45;223752;1249;139141;-62
2022/11/03 23:37:01;;;;;;;22.00;11.80;;;;;;;12.46;58.16;98610.64;223696;1242;141336;-63
2022/11/03 23:42:04;;;;;;;19.50;10.70;;;;;;;12.45;58.03;98608.41;223229;1257;140196;-63
2022/11/03 23:52:29;;;;;;;19.10;10.80;;;;;;;12.37;58.15;98592.17;223109;1247;140423;-63
